createdAt,value
2022-09-28T00:00:10.931Z,8.00
2022-09-28T00:04:15.593Z,7.95
2022-09-28T00:08:18.447Z,7.97
2022-09-28T00:12:22.023Z,7.95
2022-09-28T00:16:27.121Z,7.93
2022-09-28T00:20:31.342Z,7.95
2022-09-28T00:24:34.079Z,7.93
2022-09-28T00:28:36.889Z,7.93
2022-09-28T00:32:39.621Z,7.89
2022-09-28T00:36:46.788Z,7.84
2022-09-28T00:40:49.615Z,7.89
2022-09-28T00:44:53.546Z,7.89
2022-09-28T00:49:03.251Z,7.82
2022-09-28T00:53:12.989Z,7.81
2022-09-28T00:57:16.574Z,7.79
2022-09-28T01:01:19.968Z,7.78
2022-09-28T01:05:24.568Z,7.79
2022-09-28T01:09:30.269Z,7.80
2022-09-28T01:13:34.014Z,7.84
2022-09-28T01:17:48.908Z,7.84
2022-09-28T01:21:55.095Z,7.89
2022-09-28T01:26:31.611Z,7.92
2022-09-28T01:30:43.416Z,7.92
2022-09-28T01:34:53.846Z,7.94
2022-09-28T01:38:58.635Z,7.97
2022-09-28T01:43:06.690Z,8.02
2022-09-28T01:47:12.115Z,8.03
2022-09-28T01:51:20.663Z,8.06
2022-09-28T01:55:29.945Z,8.06
2022-09-28T01:59:37.858Z,8.07
2022-09-28T02:03:44.983Z,8.07
2022-09-28T02:07:51.994Z,8.07
2022-09-28T02:12:03.134Z,8.07
2022-09-28T02:16:14.671Z,8.08
2022-09-28T02:20:18.489Z,8.08
2022-09-28T02:24:28.469Z,8.10
2022-09-28T02:28:31.572Z,8.11
2022-09-28T02:32:40.720Z,8.09
2022-09-28T02:36:44.971Z,8.12
2022-09-28T02:40:57.477Z,8.15
2022-09-28T02:45:17.087Z,8.17
2022-09-28T02:49:29.322Z,8.19
2022-09-28T02:53:57.430Z,8.25
2022-09-28T02:58:16.450Z,8.25
2022-09-28T03:02:26.897Z,8.26
2022-09-28T03:06:38.625Z,8.28
2022-09-28T03:10:47.224Z,8.33
2022-09-28T03:15:06.355Z,8.36
2022-09-28T03:19:09.190Z,8.33
2022-09-28T03:23:24.207Z,8.38
2022-09-28T03:27:27.806Z,8.36
2022-09-28T03:31:30.571Z,8.33
2022-09-28T03:35:33.436Z,8.28
2022-09-28T03:39:37.707Z,8.23
2022-09-28T03:43:40.622Z,8.23
2022-09-28T03:47:46.958Z,8.20
2022-09-28T03:51:49.639Z,8.17
2022-09-28T03:55:54.421Z,8.15
2022-09-28T03:59:57.105Z,8.11
2022-09-28T04:03:59.841Z,8.05
2022-09-28T04:08:02.763Z,8.01
2022-09-28T04:12:07.599Z,7.97
2022-09-28T04:16:11.855Z,7.96
2022-09-28T04:20:14.945Z,7.93
2022-09-28T04:24:17.657Z,7.96
2022-09-28T04:28:45.343Z,7.91
2022-09-28T04:32:48.099Z,7.83
2022-09-28T04:36:51.240Z,7.74
2022-09-28T04:40:54.031Z,7.67
2022-09-28T04:44:58.877Z,7.68
2022-09-28T04:49:01.673Z,7.71
2022-09-28T04:53:04.678Z,7.67
2022-09-28T04:57:07.632Z,7.69
2022-09-28T05:01:15.296Z,7.69
2022-09-28T05:05:18.028Z,7.74
2022-09-28T05:09:20.822Z,7.78
2022-09-28T05:13:23.522Z,7.79
2022-09-28T05:17:27.719Z,7.78
2022-09-28T05:21:30.869Z,7.82
2022-09-28T05:25:35.762Z,7.81
2022-09-28T05:29:38.625Z,7.82
2022-09-28T05:33:42.827Z,7.82
2022-09-28T05:37:45.527Z,7.80
2022-09-28T05:41:48.410Z,7.79
2022-09-28T05:45:55.239Z,7.80
2022-09-28T05:49:59.989Z,7.80
2022-09-28T05:54:05.968Z,7.79
2022-09-28T05:58:09.330Z,7.80
2022-09-28T06:02:12.411Z,7.81
2022-09-28T06:06:16.648Z,7.82
2022-09-28T06:10:19.475Z,7.86
2022-09-28T06:14:22.289Z,7.89
2022-09-28T06:18:25.155Z,7.96
2022-09-28T06:22:29.327Z,8.00
2022-09-28T06:26:32.296Z,8.01
2022-09-28T06:30:38.581Z,8.05
2022-09-28T06:34:42.086Z,8.15
2022-09-28T06:38:46.281Z,8.17
2022-09-28T06:42:57.153Z,8.21
2022-09-28T06:46:59.912Z,8.28
2022-09-28T06:51:03.138Z,8.32
2022-09-28T06:55:08.016Z,8.36
2022-09-28T06:59:12.242Z,8.38
2022-09-28T07:03:16.761Z,8.44
2022-09-28T07:07:19.444Z,8.49
2022-09-28T07:11:26.844Z,8.64
2022-09-28T07:15:30.621Z,8.83
2022-09-28T07:19:33.986Z,8.94
2022-09-28T07:23:50.194Z,9.10
2022-09-28T07:27:59.794Z,9.33
2022-09-28T07:32:03.328Z,9.43
2022-09-28T07:36:07.393Z,9.54
2022-09-28T07:40:28.755Z,9.50
2022-09-28T07:44:33.775Z,9.36
2022-09-28T07:48:38.107Z,9.30
2022-09-28T07:52:40.946Z,9.51
2022-09-28T07:56:43.612Z,10.17
2022-09-28T08:00:49.158Z,10.40
2022-09-28T08:04:51.941Z,10.53
2022-09-28T08:08:56.426Z,10.49
2022-09-28T08:13:06.413Z,10.66
2022-09-28T08:17:12.994Z,10.43
2022-09-28T08:21:33.589Z,10.40
2022-09-28T08:25:38.334Z,10.32
2022-09-28T08:29:41.166Z,10.53
2022-09-28T08:33:45.321Z,11.06
2022-09-28T08:37:55.457Z,11.53
2022-09-28T08:42:13.428Z,12.39
2022-09-28T08:46:22.780Z,12.64
2022-09-28T08:50:34.071Z,12.63
2022-09-28T08:54:44.184Z,12.87
2022-09-28T08:58:54.027Z,12.73
2022-09-28T09:02:56.853Z,13.13
2022-09-28T09:07:27.541Z,13.75
2022-09-28T09:11:45.412Z,14.03
2022-09-28T09:15:56.797Z,13.65
2022-09-28T09:20:12.246Z,13.43
2022-09-28T09:24:27.548Z,14.33
2022-09-28T09:29:04.058Z,13.83
2022-09-28T09:33:39.591Z,14.02
2022-09-28T09:38:03.114Z,13.77
2022-09-28T09:42:18.814Z,13.18
2022-09-28T09:46:29.885Z,13.27
2022-09-28T09:50:39.983Z,14.16
2022-09-28T09:54:47.798Z,14.89
2022-09-28T09:58:56.271Z,14.67
2022-09-28T10:03:00.344Z,14.09
2022-09-28T10:07:06.221Z,13.89
2022-09-28T10:11:15.053Z,13.86
2022-09-28T10:15:24.028Z,14.29
2022-09-28T10:19:33.082Z,14.13
2022-09-28T10:23:37.973Z,13.81
2022-09-28T10:27:45.451Z,14.86
2022-09-28T10:31:51.023Z,13.73
2022-09-28T10:35:53.994Z,14.47
2022-09-28T10:39:57.457Z,14.52
2022-09-28T10:44:11.165Z,14.65
2022-09-28T10:48:20.362Z,13.95
2022-09-28T10:52:38.099Z,14.03
2022-09-28T10:56:41.434Z,13.75
2022-09-28T11:00:45.994Z,15.09
2022-09-28T11:04:55.037Z,14.74
2022-09-28T11:09:01.496Z,14.02
2022-09-28T11:13:04.431Z,14.97
2022-09-28T11:17:17.422Z,15.11
2022-09-28T11:21:25.031Z,16.73
2022-09-28T11:25:29.589Z,17.68
2022-09-28T11:29:38.270Z,16.27
2022-09-28T11:33:43.486Z,17.29
2022-09-28T11:38:08.528Z,17.64
2022-09-28T11:42:30.013Z,16.06
2022-09-28T11:46:41.594Z,16.65
2022-09-28T11:50:48.797Z,16.67
2022-09-28T11:54:58.372Z,16.08
2022-09-28T11:59:05.916Z,14.98
2022-09-28T12:03:15.487Z,16.28
2022-09-28T12:07:24.981Z,15.73
2022-09-28T12:11:34.136Z,15.16
2022-09-28T12:16:10.353Z,14.74
2022-09-28T12:20:20.164Z,14.55
2022-09-28T12:24:25.782Z,14.78
2022-09-28T12:28:36.151Z,14.30
2022-09-28T12:32:43.070Z,14.00
2022-09-28T12:37:00.453Z,14.16
2022-09-28T12:41:12.494Z,14.54
2022-09-28T12:45:59.744Z,14.98
2022-09-28T12:59:20.285Z,13.75
2022-09-28T13:03:55.477Z,13.45
2022-09-28T13:08:06.144Z,13.48
2022-09-28T13:12:24.588Z,13.30
2022-09-28T13:16:34.823Z,13.22
2022-09-28T13:21:00.741Z,12.38
2022-09-28T13:25:09.514Z,11.49
2022-09-28T13:29:15.213Z,11.37
2022-09-28T13:33:27.269Z,11.99
2022-09-28T13:37:31.470Z,13.21
2022-09-28T13:41:37.101Z,13.23
2022-09-28T13:45:56.995Z,14.69
2022-09-28T13:50:14.478Z,14.22
2022-09-28T13:54:41.357Z,13.42
2022-09-28T13:58:48.806Z,15.46
2022-09-28T14:02:58.956Z,17.57
2022-09-28T14:07:16.532Z,17.41
2022-09-28T14:11:43.212Z,15.70
2022-09-28T14:15:46.893Z,14.81
2022-09-28T14:19:53.703Z,14.31
2022-09-28T14:24:19.156Z,13.45
2022-09-28T14:28:42.397Z,13.35
2022-09-28T14:32:54.134Z,12.98
2022-09-28T14:37:14.320Z,13.04
2022-09-28T14:41:31.375Z,12.89
2022-09-28T14:45:38.376Z,12.29
2022-09-28T14:49:49.087Z,11.83
2022-09-28T14:53:52.917Z,11.68
2022-09-28T14:57:58.881Z,11.86
2022-09-28T15:02:13.711Z,12.17
2022-09-28T15:06:17.394Z,12.35
2022-09-28T15:10:27.951Z,12.89
2022-09-28T15:14:32.952Z,13.32
2022-09-28T15:19:15.847Z,12.91
2022-09-28T15:23:35.014Z,12.67
2022-09-28T15:27:41.404Z,12.37
2022-09-28T15:31:44.839Z,12.15
2022-09-28T15:35:59.246Z,12.01
2022-09-28T15:40:03.215Z,11.98
2022-09-28T15:44:15.948Z,11.37
2022-09-28T15:48:21.314Z,11.03
2022-09-28T15:52:30.042Z,10.74
2022-09-28T15:56:33.028Z,10.65
2022-09-28T16:00:36.224Z,10.64
2022-09-28T16:04:41.834Z,10.37
2022-09-28T16:08:48.881Z,10.27
2022-09-28T16:12:56.564Z,9.89
2022-09-28T16:17:00.266Z,9.86
2022-09-28T16:21:36.461Z,9.80
2022-09-28T16:25:40.679Z,9.75
2022-09-28T16:29:45.106Z,9.60
2022-09-28T16:33:55.210Z,9.55
2022-09-28T16:38:03.889Z,9.70
2022-09-28T16:42:10.051Z,9.73
2022-09-28T16:46:15.994Z,9.86
2022-09-28T16:50:18.920Z,9.92
2022-09-28T16:54:41.171Z,10.04
2022-09-28T16:58:48.103Z,10.07
2022-09-28T17:02:51.509Z,10.13
2022-09-28T17:06:56.069Z,10.09
2022-09-28T17:11:23.400Z,9.97
2022-09-28T17:15:26.647Z,9.93
2022-09-28T17:19:31.102Z,9.92
2022-09-28T17:23:34.135Z,9.91
2022-09-28T17:27:38.085Z,9.87
2022-09-28T17:31:43.091Z,9.87
2022-09-28T17:35:46.622Z,9.87
2022-09-28T17:39:49.906Z,9.87
2022-09-28T17:43:52.793Z,9.84
2022-09-28T17:47:57.450Z,9.69
2022-09-28T17:52:00.135Z,9.56
2022-09-28T17:56:03.158Z,9.56
2022-09-28T18:00:06.552Z,9.48
2022-09-28T18:04:33.410Z,9.39
2022-09-28T18:08:38.102Z,9.52
2022-09-28T18:12:41.319Z,9.55
2022-09-28T18:16:45.508Z,9.53
2022-09-28T18:20:50.145Z,9.49
2022-09-28T18:24:53.143Z,9.32
2022-09-28T18:28:56.323Z,9.44
2022-09-28T18:32:59.251Z,9.48
2022-09-28T18:37:03.846Z,9.40
2022-09-28T18:41:10.165Z,9.30
2022-09-28T18:45:13.400Z,9.17
2022-09-28T18:49:16.271Z,9.07
2022-09-28T18:53:20.513Z,9.18
2022-09-28T18:57:23.745Z,9.19
2022-09-28T19:01:31.319Z,9.19
2022-09-28T19:05:35.146Z,9.13
2022-09-28T19:09:44.097Z,9.04
2022-09-28T19:13:46.824Z,9.05
2022-09-28T19:17:50.376Z,9.00
2022-09-28T19:21:53.119Z,9.00
2022-09-28T19:25:57.423Z,9.01
2022-09-28T19:30:00.183Z,8.93
2022-09-28T19:34:03.057Z,8.83
2022-09-28T19:38:06.046Z,8.83
2022-09-28T19:42:10.093Z,8.92
2022-09-28T19:46:13.320Z,8.80
2022-09-28T19:50:16.182Z,8.76
2022-09-28T19:54:21.414Z,8.74
2022-09-28T19:58:26.781Z,8.69
2022-09-28T20:02:29.752Z,8.70
2022-09-28T20:06:33.134Z,8.75
2022-09-28T20:10:35.996Z,8.52
2022-09-28T20:14:40.590Z,8.41
2022-09-28T20:18:49.978Z,8.45
2022-09-28T20:22:54.542Z,8.46
2022-09-28T20:26:57.920Z,8.52
2022-09-28T20:31:04.764Z,8.51
2022-09-28T20:35:08.966Z,8.51
2022-09-28T20:39:11.841Z,8.49
2022-09-28T20:43:15.270Z,8.54
2022-09-28T20:47:19.588Z,8.51
2022-09-28T20:51:23.369Z,8.59
2022-09-28T20:55:26.156Z,8.58
2022-09-28T20:59:29.090Z,8.57
2022-09-28T21:03:33.521Z,8.59
2022-09-28T21:07:36.354Z,8.55
2022-09-28T21:11:40.397Z,8.66
2022-09-28T21:15:43.398Z,8.68
2022-09-28T21:19:47.530Z,8.73
2022-09-28T21:23:53.110Z,8.86
2022-09-28T21:27:55.896Z,8.88
2022-09-28T21:31:58.836Z,9.00
2022-09-28T21:36:04.079Z,9.03
2022-09-28T21:40:09.849Z,8.98
2022-09-28T21:44:12.933Z,9.06
2022-09-28T21:48:15.917Z,9.05
2022-09-28T21:52:20.018Z,9.05
2022-09-28T21:56:24.052Z,9.04
2022-09-28T22:00:26.832Z,9.01
2022-09-28T22:04:29.673Z,8.96
2022-09-28T22:08:34.809Z,9.00
2022-09-28T22:12:38.175Z,8.93
2022-09-28T22:16:41.419Z,8.92
2022-09-28T22:20:44.257Z,8.88
2022-09-28T22:24:48.412Z,8.84
2022-09-28T22:28:53.196Z,8.85
2022-09-28T22:32:56.063Z,8.75
2022-09-28T22:36:58.954Z,8.68
2022-09-28T22:41:03.810Z,8.63
2022-09-28T22:45:07.839Z,8.58
2022-09-28T22:49:12.414Z,8.31
2022-09-28T22:53:15.282Z,8.41
2022-09-28T22:57:19.524Z,8.24
2022-09-28T23:01:24.130Z,8.14
2022-09-28T23:05:27.050Z,8.16
2022-09-28T23:09:29.768Z,8.15
2022-09-28T23:13:35.278Z,8.17
2022-09-28T23:17:38.070Z,8.12
2022-09-28T23:21:40.741Z,8.11
2022-09-28T23:25:43.557Z,7.93
2022-09-28T23:29:49.086Z,7.99
2022-09-28T23:33:52.578Z,7.93
2022-09-28T23:37:55.678Z,7.85
2022-09-28T23:41:59.047Z,7.74
2022-09-28T23:46:03.496Z,7.73
2022-09-28T23:50:07.204Z,7.71
2022-09-28T23:54:10.081Z,7.67
2022-09-28T23:58:13.267Z,7.49
